Latest Weather Observations for Goulburn Airport

IDN60901

Issued at 9:32 am EDT Saturday 28 February 2015 (issued every 10 minutes, with the page automatically refreshed every 10 minutes)

About weather observations | Map of Canberra area stations | Latest observations for Canberra area | Other Formats
Station Details ID: 070330 Name: GOULBURN AIRPORT AWS Lat: -34.81 Lon: 149.73 Height: 640.0 m
Data from the previous 72 hours. | See also: Recent months at Goulburn Airport
Date/Time
EDT
Tmp

°C
App
Tmp
°C
Dew
Point
°C
Rel
Hum
%
Delta-T

°C
Wind Press
QNH
hPa
Press
MSL
hPa
Rain
since
9 am
mm
Dir
 
Spd
km/h
Gust
km/h
Spd
kts
Gust
kts
28/09:30am 16.8 18.9 16.3 97 0.3 CALM 0 0 0 0 1012.8 1010.0 0.0
28/09:00am 16.2 17.7 15.7 97 0.3 WSW 2 7 1 4 1012.8 1010.0 0.0
28/08:30am 15.4 16.6 14.9 97 0.3 S 2 6 1 3 1012.8 1010.0 0.0
28/08:00am 14.8 16.2 14.3 97 0.3 CALM 0 0 0 0 1012.6 1009.8 0.0
28/07:30am 14.4 14.5 13.9 97 0.3 SE 6 7 3 4 1012.3 1009.5 0.0
28/07:00am 14.4 14.5 13.8 96 0.3 E 6 7 3 4 1012.2 1009.4 0.0
28/06:30am 14.0 14.7 13.4 96 0.3 SSW 2 6 1 3 1012.1 1009.3 0.0
28/05:30am 13.6 14.5 13.0 96 0.3 CALM 0 0 0 0 1011.4 1008.6 0.0
28/05:00am 13.6 13.2 13.0 96 0.3 SSE 7 7 4 4 1011.2 1008.4 0.0
28/04:30am 13.4 13.1 12.6 95 0.4 SSW 6 7 3 4 1011.3 1008.5 0.0
28/04:26am 13.5 13.2 12.7 95 0.5 SSW 6 9 3 5 1011.3 1008.5 0.0
28/04:00am 13.4 13.0 12.5 94 0.5 SSW 6 7 3 4 1011.4 1008.6 0.0
28/03:30am 13.5 13.2 12.6 94 0.5 SSE 6 7 3 4 1011.2 1008.4 0.0
28/02:30am 14.1 13.8 12.8 92 0.7 WSW 6 9 3 5 1011.6 1008.8 0.0
28/02:00am 15.1 15.8 13.3 89 1.0 ENE 2 7 1 4 1011.7 1008.9 0.0
28/01:00am 17.8 18.4 15.8 88 1.2 N 7 11 4 6 1012.3 1009.5 0.0
28/12:30am 17.6 17.9 15.9 90 1.0 N 9 11 5 6 1012.2 1009.4 0.0
 
Date/Time
EDT
Tmp

°C
App
Tmp
°C
Dew
Point
°C
Rel
Hum
%
Delta-T

°C
Wind Press
QNH
hPa
Press
MSL
hPa
Rain
since
9 am
mm
Dir
 
Spd
km/h
Gust
km/h
Spd
kts
Gust
kts
27/11:30pm 17.6 17.4 15.8 89 1.1 NE 11 19 6 10 1012.4 1009.6 0.0
27/11:00pm 17.8 17.6 15.8 88 1.2 NNE 11 15 6 8 1012.6 1009.8 0.0
27/10:30pm 17.9 17.3 15.7 87 1.3 NNE 13 17 7 9 1012.6 1009.8 0.0
27/10:00pm 18.3 17.8 15.9 86 1.5 NNE 13 17 7 9 1012.5 1009.7 0.0
27/09:30pm 18.8 18.1 16.4 86 1.5 NE 15 20 8 11 1012.3 1009.5 0.0
27/08:30pm 19.6 19.4 16.6 83 1.9 ENE 13 20 7 11 1011.3 1008.5 0.0
27/08:00pm 20.4 19.8 16.6 79 2.4 ENE 15 22 8 12 1011.0 1008.2 0.0
27/07:30pm 21.6 21.0 16.6 73 3.1 E 15 22 8 12 1010.7 1007.9 0.0
27/07:00pm 22.8 21.8 16.6 68 3.9 E 17 22 9 12 1010.2 1007.4 0.0
27/06:30pm 23.7 21.5 14.9 57 5.4 ENE 20 30 11 16 1009.7 1006.9 0.0
27/05:30pm 25.6 23.1 14.1 49 7.0 NE 20 26 11 14 1009.4 1006.6 0.0
27/05:00pm 26.5 24.0 13.6 45 7.8 NNE 19 26 10 14 1009.4 1006.6 0.0
27/04:30pm 25.5 24.1 13.4 47 7.3 NNE 13 20 7 11 1009.6 1006.8 0.0
27/04:00pm 26.1 24.9 13.9 47 7.4 ENE 13 24 7 13 1009.7 1006.9 0.0
27/03:30pm 26.1 24.5 12.9 44 7.9 NE 13 20 7 11 1010.1 1007.2 0.0
27/03:00pm 25.9 24.7 14.1 48 7.2 NE 13 20 7 11 1010.5 1007.7 0.0
27/02:30pm 24.9 24.4 13.8 50 6.7 NE 9 17 5 9 1011.0 1008.2 0.0
27/02:00pm 24.8 23.9 13.7 50 6.7 E 11 19 6 10 1011.4 1008.6 0.0
27/01:30pm 24.6 23.2 14.4 53 6.2 NE 15 26 8 14 1011.9 1009.1 0.0
27/01:00pm 23.6 23.1 13.8 54 5.9 N 9 20 5 11 1012.2 1009.4 0.0
27/12:30pm 22.0 20.0 12.8 56 5.4 NNE 15 22 8 12 1012.5 1009.7 0.0
27/12:00pm 22.4 20.3 13.7 58 5.2 NE 17 22 9 12 1012.8 1010.0 0.0
27/11:30am 22.4 21.4 15.7 66 4.1 NE 15 22 8 12 1013.0 1010.3 0.0
27/11:00am 20.8 18.3 14.0 65 4.1 NE 20 26 11 14 1013.4 1010.6 0.0
27/10:30am 20.2 18.6 15.0 72 3.1 NE 17 24 9 13 1013.5 1010.7 0.0
27/10:16am 18.9 17.0 14.2 74 2.8 NE 17 22 9 12 1013.5 1010.7 0.0
27/10:00am 19.0 17.4 14.9 77 2.5 NE 17 22 9 12 1013.6 1010.8 0.0
27/09:30am 18.2 16.9 14.7 80 2.1 NE 15 22 8 12 1013.6 1010.8 0.0
27/09:00am 18.2 16.7 15.3 83 1.7 ENE 17 22 9 12 1013.3 1010.5 0.6
27/08:30am 17.0 16.8 14.6 86 1.4 NE 9 13 5 7 1013.3 1010.5 0.6
27/08:00am 16.7 16.9 14.7 88 1.2 ENE 7 13 4 7 1013.3 1010.5 0.6
27/07:41am 16.5 16.9 15.2 92 0.8 ENE 7 11 4 6 1012.9 1010.2 0.6
27/07:30am 16.2 16.6 15.2 94 0.6 NE 7 7 4 4 1012.8 1010.0 0.6
27/07:00am 15.1 16.5 14.3 95 0.5 CALM 0 6 0 3 1012.5 1009.7 0.6
27/06:30am 15.0 16.0 14.2 95 0.5 SE 2 9 1 5 1012.2 1009.4 0.6
27/06:29am 15.0 15.6 14.2 95 0.5 SE 4 9 2 5 1012.2 1009.4 0.6
27/06:00am 15.6 15.9 15.0 96 0.4 SSE 7 9 4 5 1012.0 1009.2 0.6
27/05:30am 15.3 16.5 14.8 97 0.3 SE 2 7 1 4 1011.9 1009.1 0.6
27/05:17am 15.5 16.0 15.0 97 0.3 E 6 9 3 5 1011.7 1008.9 0.6
27/05:11am 15.4 15.7 14.9 97 0.3 SE 7 9 4 5 1011.7 1008.9 0.6
27/05:00am 15.4 15.7 14.9 97 0.3 SSE 7 9 4 5 1011.7 1008.9 0.6
27/04:30am 14.9 15.6 14.4 97 0.3 SW 4 6 2 3 1011.9 1009.1 0.6
27/04:26am 14.8 15.0 14.3 97 0.3 SW 6 6 3 3 1011.9 1009.1 0.6
27/04:22am 14.8 15.0 14.3 97 0.3 SW 6 6 3 3 1011.9 1009.1 0.6
27/04:08am 14.6 14.6 14.1 97 0.3 SW 7 7 4 4 1011.8 1009.0 0.6
27/04:07am 14.6 14.6 14.1 97 0.3 SW 7 7 4 4 1011.8 1009.0 0.6
27/04:00am 14.4 14.3 13.9 97 0.3 WSW 7 7 4 4 1011.8 1009.0 0.6
27/03:30am 14.2 15.4 13.7 97 0.3 CALM 0 0 0 0 1012.0 1009.2 0.6
27/03:00am 13.2 14.0 12.6 96 0.3 CALM 0 0 0 0 1012.2 1009.4 0.6
27/02:30am 12.4 13.0 11.8 96 0.3 CALM 0 0 0 0 1012.2 1009.4 0.6
27/02:06am 11.4 10.5 10.5 94 0.5 NW 6 7 3 4 1012.2 1009.4 0.4
27/02:00am 11.0 10.6 9.9 93 0.6 NNW 2 7 1 4 1012.2 1009.4 0.4
27/01:30am 12.0 12.4 11.2 95 0.4 CALM 0 0 0 0 1012.3 1009.5 0.4
27/01:09am 12.1 12.5 11.2 94 0.5 CALM 0 0 0 0 1012.4 1009.6 0.4
27/01:00am 12.2 12.6 11.4 95 0.4 CALM 0 4 0 2 1012.5 1009.7 0.4
27/12:39am 12.2 12.2 11.3 94 0.5 SW 2 7 1 4 1012.6 1009.8 0.4
27/12:30am 11.9 10.9 11.0 94 0.5 S 7 11 4 6 1012.6 1009.8 0.4
27/12:00am 12.1 11.3 11.0 93 0.6 SSE 6 6 3 3 1012.7 1009.9 0.4
 
Date/Time
EDT
Tmp

°C
App
Tmp
°C
Dew
Point
°C
Rel
Hum
%
Delta-T

°C
Wind Press
QNH
hPa
Press
MSL
hPa
Rain
since
9 am
mm
Dir
 
Spd
km/h
Gust
km/h
Spd
kts
Gust
kts
26/11:30pm 12.5 11.7 11.1 91 0.8 SW 6 7 3 4 1012.7 1009.9 0.4
26/11:00pm 13.9 13.5 12.5 91 0.8 SE 6 7 3 4 1012.9 1010.2 0.4
26/10:30pm 14.6 14.4 13.0 90 0.9 SSE 6 7 3 4 1012.9 1010.2 0.4
26/10:00pm 14.9 14.7 13.1 89 1.0 NNE 6 11 3 6 1012.9 1010.2 0.4
26/09:30pm 16.0 16.1 13.8 87 1.3 E 6 7 3 4 1012.6 1009.8 0.4
26/09:00pm 15.7 15.5 13.5 87 1.3 E 7 9 4 5 1012.5 1009.7 0.4
26/08:30pm 16.7 16.8 13.8 83 1.7 ENE 6 11 3 6 1012.1 1009.3 0.4
26/08:00pm 16.8 14.7 13.5 81 1.9 E 17 24 9 13 1011.6 1008.8 0.2
26/07:30pm 18.0 15.5 13.5 75 2.6 E 19 26 10 14 1010.0 1007.1 0.0
26/07:00pm 18.5 13.6 13.6 73 2.9 ESE 32 44 17 24 1009.1 1006.3 0.0
26/06:35pm 22.7 19.4 12.9 54 5.8 S 22 48 12 26 1008.5 1005.6 0.0
26/06:30pm 24.9 22.5 12.8 47 7.2 SSW 17 22 9 12 1008.1 1005.3 0.0
26/06:00pm 25.2 23.6 12.8 46 7.4 WSW 13 19 7 10 1008.0 1005.2 0.0
26/05:30pm 26.1 24.3 13.2 44 7.8 WSW 15 20 8 11 1007.7 1004.9 0.0
26/05:00pm 25.5 24.4 14.3 50 6.9 W 13 20 7 11 1008.1 1005.3 0.0
26/04:30pm 25.1 24.2 13.6 49 6.9 W 11 20 6 11 1008.3 1005.4 0.0
26/04:00pm 26.0 25.6 14.1 47 7.3 NW 9 15 5 8 1008.4 1005.5 0.0
26/03:30pm 25.4 23.8 13.9 49 7.0 NW 15 24 8 13 1008.9 1006.1 0.0
26/03:00pm 24.3 23.0 13.8 52 6.3 W 13 24 7 13 1009.4 1006.6 0.0
26/02:30pm 24.2 21.6 13.1 50 6.6 W 19 28 10 15 1009.7 1006.9 0.0
26/02:00pm 25.4 23.2 14.5 51 6.7 W 19 28 10 15 1010.1 1007.2 0.0
26/01:30pm 23.6 21.3 14.0 55 5.8 WNW 19 26 10 14 1010.4 1007.6 0.0
26/01:00pm 23.4 22.1 13.6 54 5.9 NNW 13 20 7 11 1010.5 1007.7 0.0
26/12:30pm 23.3 22.2 13.2 53 6.0 WNW 11 20 6 11 1011.0 1008.2 0.0
26/12:00pm 22.6 21.4 13.9 58 5.2 W 13 20 7 11 1011.6 1008.8 0.0
26/11:30am 21.5 20.7 13.9 62 4.5 W 11 20 6 11 1011.8 1009.0 0.0
26/11:00am 20.5 19.8 13.2 63 4.3 WNW 9 19 5 10 1012.1 1009.3 0.0
26/10:30am 19.5 19.5 14.1 71 3.2 WNW 7 11 4 6 1012.2 1009.4 0.0
26/10:00am 18.9 18.7 13.7 72 3.1 N 7 13 4 7 1012.1 1009.3 0.0
26/09:30am 18.0 18.1 13.9 77 2.4 N 6 11 3 6 1012.1 1009.3 0.0
26/09:00am 16.6 16.2 13.1 80 2.0 N 7 13 4 7 1012.1 1009.3 0.0
26/08:30am 15.9 14.7 12.8 82 1.8 NNW 11 15 6 8 1012.4 1009.6 0.0
26/08:00am 15.2 14.8 12.9 86 1.3 NNW 7 11 4 6 1012.1 1009.3 0.0
26/07:30am 15.2 14.5 13.1 87 1.2 N 9 11 5 6 1012.3 1009.5 0.0
26/07:00am 15.1 14.9 13.0 87 1.2 NNW 6 7 3 4 1012.1 1009.3 0.0
26/06:30am 15.0 14.8 13.0 88 1.1 NNW 6 9 3 5 1012.1 1009.3 0.0
26/06:00am 15.0 15.9 13.0 88 1.1 CALM 0 6 0 3 1011.9 1009.1 0.0
26/05:30am 14.9 14.5 12.9 88 1.1 NE 7 9 4 5 1011.8 1009.0 0.0
26/05:00am 14.9 14.2 13.1 89 1.0 NE 9 11 5 6 1011.9 1009.1 0.0
26/04:30am 14.8 14.4 13.0 89 1.0 ENE 7 11 4 6 1012.1 1009.3 0.0
26/04:00am 14.8 14.0 13.0 89 1.0 ENE 9 11 5 6 1012.5 1009.7 0.0
26/03:30am 14.7 14.3 12.9 89 1.0 E 7 9 4 5 1012.7 1009.9 0.0
26/03:00am 14.6 13.7 12.6 88 1.1 E 9 13 5 7 1013.1 1010.4 0.0
26/02:30am 14.6 14.3 12.6 88 1.1 E 6 7 3 4 1013.5 1010.7 0.0
26/02:00am 14.6 13.7 12.6 88 1.1 ENE 9 11 5 6 1013.5 1010.7 0.0
26/01:53am 14.6 13.7 12.6 88 1.1 ENE 9 13 5 7 1013.7 1010.9 0.0
26/01:34am 14.5 13.2 12.5 88 1.1 ENE 11 15 6 8 1014.1 1011.3 0.0
26/01:30am 14.5 13.2 12.5 88 1.1 ENE 11 15 6 8 1014.1 1011.3 0.0
26/01:00am 14.6 13.7 12.6 88 1.1 NE 9 11 5 6 1014.5 1011.8 0.0
26/12:30am 14.5 14.0 12.5 88 1.1 NE 7 9 4 5 1015.0 1012.2 0.0
26/12:10am 14.5 14.0 12.5 88 1.1 E 7 9 4 5 1015.2 1012.4 0.0
26/12:00am 14.4 13.5 12.6 89 1.0 ESE 9 13 5 7 1015.3 1012.5 0.0
 
Date/Time
EDT
Tmp

°C
App
Tmp
°C
Dew
Point
°C
Rel
Hum
%
Delta-T

°C
Wind Press
QNH
hPa
Press
MSL
hPa
Rain
since
9 am
mm
Dir
 
Spd
km/h
Gust
km/h
Spd
kts
Gust
kts
25/11:30pm 14.4 13.8 12.4 88 1.1 ESE 7 9 4 5 1015.5 1012.7 0.0
25/11:24pm 14.5 13.6 12.5 88 1.1 ESE 9 11 5 6 1015.5 1012.7 0.0
25/11:00pm 14.6 13.3 12.6 88 1.1 ENE 11 15 6 8 1015.7 1013.0 0.0
25/10:30pm 14.5 12.6 12.9 90 0.9 ENE 15 20 8 11 1015.8 1013.1 0.0
25/10:00pm 14.3 12.3 12.7 90 0.9 E 15 22 8 12 1015.9 1013.2 0.0
25/09:30pm 14.4 12.0 12.6 89 1.0 E 17 24 9 13 1016.0 1013.3 0.0
25/09:00pm 14.3 12.7 12.7 90 0.9 E 13 17 7 9 1015.9 1013.2 0.0
25/08:30pm 14.3 12.0 12.9 91 0.8 ESE 17 22 9 12 1015.8 1013.1 0.0
25/08:01pm 14.4 12.9 13.1 92 0.7 ESE 13 19 7 10 1016.0 1013.3 0.0
25/08:00pm 14.4 12.9 13.1 92 0.7 ESE 13 22 7 12 1016.1 1013.4 0.0
25/07:33pm 14.7 11.8 12.9 89 1.0 E 20 26 11 14 1016.3 1013.6 0.0
25/07:30pm 14.7 12.0 12.9 89 1.0 E 19 26 10 14 1016.3 1013.6 0.0
25/07:00pm 15.4 12.8 13.1 86 1.3 E 19 24 10 13 1016.2 1013.5 0.0
25/06:30pm 15.5 12.6 12.8 84 1.5 E 20 28 11 15 1016.6 1013.8 0.0
25/06:00pm 16.2 13.2 12.7 80 2.0 E 20 28 11 15 1016.3 1013.6 0.0
25/05:34pm 16.8 13.9 12.9 78 2.2 ENE 20 28 11 15 1016.2 1013.5 0.0
25/05:33pm 16.8 13.9 12.9 78 2.2 ENE 20 28 11 15 1016.2 1013.5 0.0
25/05:30pm 16.8 13.9 12.9 78 2.2 E 20 28 11 15 1016.2 1013.5 0.0
25/05:00pm 16.7 13.0 12.8 78 2.2 ESE 24 32 13 17 1016.3 1013.6 0.0
25/04:51pm 16.7 13.2 12.3 75 2.5 ESE 22 33 12 18 1016.3 1013.6 0.0
25/04:30pm 17.8 14.9 12.9 73 2.8 ESE 20 28 11 15 1016.3 1013.6 0.0
25/04:00pm 16.5 13.8 13.0 80 2.0 E 19 24 10 13 1016.8 1014.0 0.0
25/03:56pm 16.4 13.9 13.5 83 1.7 E 19 24 10 13 1016.9 1014.1 0.0
25/03:30pm 16.4 13.7 13.5 83 1.7 ESE 20 28 11 15 1017.2 1014.5 0.0
25/03:00pm 17.1 14.7 13.8 81 1.9 ESE 19 26 10 14 1017.5 1014.8 0.0
25/02:30pm 17.2 13.6 13.1 77 2.4 ESE 24 33 13 18 1017.5 1014.8 0.0
25/02:23pm 18.5 15.5 13.6 73 2.9 E 22 32 12 17 1017.4 1014.7 0.0
25/02:21pm 18.5 15.4 13.4 72 3.0 E 22 32 12 17 1017.4 1014.7 0.0
25/02:00pm 17.9 15.2 13.4 75 2.6 ESE 20 30 11 16 1017.7 1015.0 0.0
25/01:57pm 18.1 15.6 13.4 74 2.7 ESE 19 24 10 13 1017.7 1015.0 0.0
25/01:30pm 17.4 14.1 12.7 74 2.7 ESE 22 30 12 16 1018.5 1015.7 0.0
25/01:01pm 18.0 15.4 13.3 74 2.7 ESE 19 26 10 14 1018.7 1016.0 0.0
25/01:00pm 17.9 15.4 13.4 75 2.6 ESE 19 26 10 14 1018.7 1016.0 0.0
25/12:30pm 17.2 14.3 12.9 76 2.5 ESE 20 28 11 15 1019.0 1016.3 0.0
25/12:00pm 17.9 15.3 13.2 74 2.7 ESE 19 26 10 14 1019.1 1016.4 0.0
25/11:30am 17.5 14.3 13.0 75 2.6 ESE 22 30 12 16 1019.3 1016.6 0.0
25/11:00am 17.2 14.0 13.1 77 2.4 SE 22 32 12 17 1019.5 1016.8 0.0
25/10:30am 16.8 14.0 13.1 79 2.1 SE 20 28 11 15 1019.4 1016.7 0.0
25/10:00am 16.6 12.6 13.1 80 2.0 SE 26 35 14 19 1019.3 1016.6 0.0

Latest Capital City Observations: Canberra | Sydney | Melbourne | Brisbane | Adelaide | Perth | Hobart | Darwin

Other Formats:

Comma delimited format used in spreadsheet applications
http://www.bom.gov.au/fwo/IDN60903/IDN60903.95716.axf

JavaScript Object Notation format (JSON) in row-major order
http://www.bom.gov.au/fwo/IDN60903/IDN60903.95716.json